Time;durP1;ratioP1;P1;durP2;ratioP2;P2;SDS_P1;SDS_P2;PMS_P1;PMS_P2;Temp;Humidity;BMP_temperature;BMP_pressure;BME280_temperature;BME280_humidity;BME280_pressure;Samples;Min_cycle;Max_cycle;Signal;HPM_P1;HPM_P2
2021/09/13 00:01:38;;;;;;;4.97;4.57;;;15.00;99.90;;;;;;6194150;28;20296;-70
2021/09/13 00:04:41;;;;;;;5.30;4.80;;;15.00;99.90;;;;;;6195787;28;20759;-70
2021/09/13 00:07:43;;;;;;;5.10;4.63;;;14.90;99.90;;;;;;6195283;28;20231;-70
2021/09/13 00:10:47;;;;;;;4.97;4.57;;;14.90;99.90;;;;;;6195486;28;20601;-70
2021/09/13 00:13:50;;;;;;;5.17;4.70;;;14.90;99.90;;;;;;6192552;28;20197;-70
2021/09/13 00:16:53;;;;;;;5.20;4.70;;;14.80;99.90;;;;;;6219479;28;20246;-70
2021/09/13 00:19:56;;;;;;;4.93;4.53;;;14.80;99.90;;;;;;6195436;28;20240;-70
2021/09/13 00:22:59;;;;;;;5.23;4.77;;;14.80;99.90;;;;;;6210298;28;20204;-70
2021/09/13 00:26:01;;;;;;;5.80;5.17;;;14.70;99.90;;;;;;6195204;28;20219;-70
2021/09/13 00:29:05;;;;;;;5.20;4.73;;;14.70;99.90;;;;;;6194027;28;20232;-70
2021/09/13 00:32:09;;;;;;;5.30;4.80;;;14.60;99.90;;;;;;6193768;28;20499;-70
2021/09/13 00:35:12;;;;;;;6.27;4.67;;;14.60;99.90;;;;;;6195009;28;20186;-70
2021/09/13 00:38:15;;;;;;;5.23;4.73;;;14.60;99.90;;;;;;6194930;28;20196;-70
2021/09/13 00:41:18;;;;;;;5.87;4.97;;;14.50;99.90;;;;;;6195051;28;20224;-70
2021/09/13 00:44:21;;;;;;;5.30;4.77;;;14.50;99.90;;;;;;6193996;28;20194;-70
2021/09/13 00:47:23;;;;;;;5.53;5.03;;;14.50;99.90;;;;;;6194868;28;20193;-70
2021/09/13 00:50:25;;;;;;;5.53;5.03;;;14.50;99.90;;;;;;6210538;28;20228;-70
2021/09/13 00:53:27;;;;;;;5.47;4.97;;;14.50;99.90;;;;;;6194986;28;20204;-70
2021/09/13 00:56:30;;;;;;;4.67;4.27;;;14.50;99.90;;;;;;6195072;28;20283;-70
2021/09/13 00:59:33;;;;;;;5.47;5.00;;;14.50;99.90;;;;;;6193365;28;20562;-70
2021/09/13 01:02:35;;;;;;;6.83;5.60;;;14.50;99.90;;;;;;6209682;28;20229;-71
2021/09/13 01:05:37;;;;;;;5.20;4.70;;;14.50;99.90;;;;;;6211508;28;20220;-71
2021/09/13 01:08:41;;;;;;;5.63;5.13;;;14.40;99.90;;;;;;6197969;28;20237;-71
2021/09/13 01:11:44;;;;;;;4.90;4.50;;;14.40;99.90;;;;;;6197935;28;20560;-71
2021/09/13 01:14:46;;;;;;;6.10;5.50;;;14.40;99.90;;;;;;6186565;28;20220;-71
2021/09/13 01:17:48;;;;;;;5.90;4.93;;;14.40;99.90;;;;;;6204576;28;20193;-71
2021/09/13 01:20:51;;;;;;;6.07;4.93;;;14.40;99.90;;;;;;6213883;28;20217;-71
2021/09/13 01:23:54;;;;;;;5.83;5.33;;;14.40;99.90;;;;;;6197551;28;20190;-71
2021/09/13 01:27:06;;;;;;;5.80;5.30;;;14.40;99.90;;;;;;6181405;28;20198;-71
2021/09/13 01:30:09;;;;;;;5.53;4.97;;;14.30;99.90;;;;;;6219769;28;20197;-71
2021/09/13 01:33:11;;;;;;;5.60;5.07;;;14.30;99.90;;;;;;6216937;28;20197;-70
2021/09/13 01:36:14;;;;;;;5.40;4.90;;;14.30;99.90;;;;;;6198775;28;20669;-71
2021/09/13 01:39:18;;;;;;;6.43;5.10;;;14.20;99.90;;;;;;6174487;28;20182;-71
2021/09/13 01:42:20;;;;;;;5.70;5.17;;;14.20;99.90;;;;;;6195727;28;20288;-71
2021/09/13 01:45:23;;;;;;;6.33;4.70;;;14.20;99.90;;;;;;6198355;28;20802;-71
2021/09/13 01:48:25;;;;;;;5.67;4.43;;;14.20;99.90;;;;;;6213340;28;20197;-72
2021/09/13 01:51:28;;;;;;;5.40;4.90;;;14.30;99.90;;;;;;6213398;28;20193;-71
2021/09/13 01:54:31;;;;;;;5.37;4.87;;;14.30;99.90;;;;;;6180903;28;20307;-71
2021/09/13 01:57:34;;;;;;;5.70;5.10;;;14.30;99.90;;;;;;6196738;28;20610;-71
2021/09/13 02:00:36;;;;;;;6.10;5.50;;;14.30;99.90;;;;;;6196611;28;20217;-71
2021/09/13 02:03:39;;;;;;;6.03;5.43;;;14.30;99.90;;;;;;6180667;28;20276;-71
2021/09/13 02:06:43;;;;;;;5.47;4.97;;;14.30;99.90;;;;;;6188610;28;20205;-71
2021/09/13 02:09:47;;;;;;;5.37;4.87;;;14.20;99.90;;;;;;6192671;28;20197;-71
2021/09/13 02:12:52;;;;;;;5.40;4.90;;;14.20;99.90;;;;;;6197857;28;20194;-71
2021/09/13 02:16:00;;;;;;;5.43;5.03;;;14.20;99.90;;;;;;6212506;28;20202;-71
2021/09/13 02:19:03;;;;;;;5.27;4.80;;;14.10;99.90;;;;;;6212116;28;20692;-71
2021/09/13 02:22:05;;;;;;;5.73;5.23;;;14.10;99.90;;;;;;6196276;28;20227;-71
2021/09/13 02:25:09;;;;;;;6.03;5.43;;;14.00;99.90;;;;;;6196274;28;20277;-71
2021/09/13 02:28:12;;;;;;;7.17;5.50;;;14.00;99.90;;;;;;6180086;28;20198;-71
2021/09/13 02:31:14;;;;;;;6.13;5.50;;;14.00;99.90;;;;;;6196356;28;20205;-71
2021/09/13 02:34:17;;;;;;;6.27;5.77;;;14.00;99.90;;;;;;6196496;28;20201;-71
2021/09/13 02:37:19;;;;;;;8.20;5.77;;;14.00;99.90;;;;;;6188148;28;20198;-71
2021/09/13 02:40:21;;;;;;;5.83;5.33;;;14.00;99.90;;;;;;6181083;28;20297;-71
2021/09/13 02:43:24;;;;;;;5.60;5.10;;;14.00;99.90;;;;;;6186857;28;20222;-71
2021/09/13 02:46:28;;;;;;;7.17;5.33;;;14.00;99.90;;;;;;6212241;28;20193;-72
2021/09/13 02:49:31;;;;;;;5.70;5.20;;;14.00;99.90;;;;;;6197125;28;20177;-71
2021/09/13 02:52:35;;;;;;;6.20;5.47;;;14.00;99.90;;;;;;6195553;28;20189;-71
2021/09/13 02:55:37;;;;;;;6.40;5.80;;;14.00;99.90;;;;;;6212058;28;20201;-71
2021/09/13 02:58:40;;;;;;;5.87;5.23;;;14.10;99.90;;;;;;6211860;28;20284;-71
2021/09/13 03:01:43;;;;;;;5.50;5.00;;;14.10;99.90;;;;;;6195188;28;20260;-71
2021/09/13 03:04:45;;;;;;;5.30;4.80;;;14.10;99.90;;;;;;6203766;28;20624;-71
2021/09/13 03:07:49;;;;;;;5.13;4.63;;;14.10;99.90;;;;;;6187185;28;20567;-71
2021/09/13 03:10:52;;;;;;;6.00;5.50;;;14.00;99.90;;;;;;6184528;28;20200;-71
2021/09/13 03:13:55;;;;;;;5.77;5.27;;;14.00;99.90;;;;;;6208446;28;20288;-72
2021/09/13 03:16:57;;;;;;;5.77;5.27;;;14.00;99.90;;;;;;6196428;28;20212;-71
2021/09/13 03:20:00;;;;;;;5.23;4.83;;;13.90;99.90;;;;;;6211431;28;20233;-72
2021/09/13 03:23:03;;;;;;;5.87;5.37;;;13.90;99.90;;;;;;6211412;28;20196;-71
2021/09/13 03:26:06;;;;;;;5.77;5.03;;;13.90;99.90;;;;;;6196385;28;20190;-71
2021/09/13 03:29:09;;;;;;;6.67;5.10;;;13.90;99.90;;;;;;6210961;28;20205;-71
2021/09/13 03:32:13;;;;;;;6.17;5.60;;;13.90;99.90;;;;;;6196067;28;20189;-71
2021/09/13 03:35:16;;;;;;;6.17;5.50;;;13.90;99.90;;;;;;6194913;28;20570;-71
2021/09/13 03:38:19;;;;;;;6.10;5.60;;;13.80;99.90;;;;;;6194848;28;20668;-71
2021/09/13 03:41:21;;;;;;;5.57;5.07;;;13.80;99.90;;;;;;6194900;28;20223;-71
2021/09/13 03:44:24;;;;;;;5.90;5.30;;;13.80;99.90;;;;;;6194503;28;20193;-71
2021/09/13 03:47:29;;;;;;;6.70;6.10;;;13.80;99.90;;;;;;6194591;28;20189;-71
2021/09/13 03:50:31;;;;;;;5.90;5.30;;;13.80;99.90;;;;;;6178402;28;20222;-71
2021/09/13 03:53:33;;;;;;;6.50;5.90;;;13.80;99.90;;;;;;6194743;28;20576;-72
2021/09/13 03:56:40;;;;;;;7.60;6.07;;;13.80;99.90;;;;;;6195706;28;20185;-72
2021/09/13 03:59:42;;;;;;;6.97;6.23;;;13.80;99.90;;;;;;6210720;28;20731;-71
2021/09/13 04:02:47;;;;;;;6.77;6.17;;;13.70;99.90;;;;;;6178255;28;20283;-72
2021/09/13 04:05:55;;;;;;;5.90;5.40;;;13.70;99.90;;;;;;6186632;28;20205;-71
2021/09/13 04:12:54;;;;;;;6.30;5.70;;;13.70;99.90;;;;;;6194177;28;20198;-71
2021/09/13 04:16:17;;;;;;;6.37;5.77;;;13.70;99.90;;;;;;6201988;28;20205;-71
2021/09/13 04:19:42;;;;;;;6.70;6.10;;;13.60;99.90;;;;;;6194857;28;20294;-71
2021/09/13 04:22:55;;;;;;;5.77;5.27;;;13.60;99.90;;;;;;6194322;28;20666;-71
2021/09/13 04:26:28;;;;;;;6.70;5.23;;;13.60;99.90;;;;;;6193841;28;20197;-71
2021/09/13 04:29:51;;;;;;;5.10;4.70;;;13.60;99.90;;;;;;6194161;28;20228;-71
2021/09/13 04:33:11;;;;;;;5.77;5.27;;;13.60;99.90;;;;;;6195815;28;20283;-72
2021/09/13 04:36:43;;;;;;;5.47;4.97;;;13.60;99.90;;;;;;6181352;28;21018;-71
2021/09/13 04:40:08;;;;;;;5.97;5.30;;;13.60;99.90;;;;;;6196047;28;20222;-71
2021/09/13 04:43:29;;;;;;;5.67;5.17;;;13.60;99.90;;;;;;6199868;28;20185;-71
2021/09/13 04:46:50;;;;;;;5.50;5.00;;;13.60;99.90;;;;;;6200484;28;20193;-71
2021/09/13 04:50:25;;;;;;;5.30;4.80;;;13.60;99.90;;;;;;6186657;28;20201;-71
2021/09/13 04:53:42;;;;;;;5.83;5.20;;;13.60;99.90;;;;;;6183924;28;20197;-71
2021/09/13 04:56:49;;;;;;;5.73;5.13;;;13.60;99.90;;;;;;6199132;28;20193;-71
2021/09/13 04:59:51;;;;;;;5.00;4.60;;;13.60;99.90;;;;;;6197653;28;20221;-71
2021/09/13 05:02:53;;;;;;;4.77;4.37;;;13.60;99.90;;;;;;6197915;28;20626;-71
2021/09/13 05:05:56;;;;;;;6.10;5.50;;;13.60;99.90;;;;;;6189636;28;20202;-71
2021/09/13 05:08:59;;;;;;;5.50;4.90;;;13.60;99.90;;;;;;6195452;28;20544;-72
2021/09/13 05:12:05;;;;;;;5.33;4.93;;;13.70;99.90;;;;;;6182020;28;20205;-72
2021/09/13 05:15:08;;;;;;;6.47;5.70;;;13.70;99.90;;;;;;6208560;28;20185;-72
2021/09/13 05:18:11;;;;;;;4.73;4.33;;;13.70;99.90;;;;;;6211687;28;20213;-72
2021/09/13 05:21:15;;;;;;;5.80;5.20;;;13.70;99.90;;;;;;6213769;28;20217;-71
2021/09/13 05:24:19;;;;;;;5.80;5.30;;;13.80;99.90;;;;;;6197767;28;20684;-72
2021/09/13 05:27:27;;;;;;;5.20;4.80;;;13.90;99.90;;;;;;6181988;28;20194;-71
2021/09/13 05:30:30;;;;;;;6.40;5.20;;;13.90;99.90;;;;;;6197634;28;20214;-71
2021/09/13 05:33:33;;;;;;;5.43;4.93;;;14.00;99.90;;;;;;6198667;28;20259;-71
2021/09/13 05:36:36;;;;;;;5.10;4.67;;;14.00;99.90;;;;;;6189143;28;20209;-71
2021/09/13 05:39:38;;;;;;;5.63;5.20;;;14.10;99.90;;;;;;6188871;28;20201;-72
2021/09/13 05:42:49;;;;;;;4.93;4.53;;;14.20;99.90;;;;;;6205081;28;20645;-72
2021/09/13 05:45:53;;;;;;;5.30;4.83;;;14.20;99.90;;;;;;6197008;28;20204;-71
2021/09/13 05:48:55;;;;;;;6.00;5.50;;;14.30;99.90;;;;;;6196917;28;20204;-71
2021/09/13 05:51:58;;;;;;;5.10;4.70;;;14.30;99.90;;;;;;6196594;28;20197;-71
2021/09/13 05:55:10;;;;;;;6.03;4.83;;;14.40;99.90;;;;;;6197980;28;20560;-71
2021/09/13 05:58:17;;;;;;;5.37;4.87;;;14.40;99.90;;;;;;6196676;28;20198;-72
2021/09/13 06:01:24;;;;;;;5.57;5.07;;;14.50;99.90;;;;;;6181199;28;20222;-71
2021/09/13 06:04:29;;;;;;;5.40;4.70;;;14.50;99.90;;;;;;6187975;28;20929;-71
2021/09/13 06:07:33;;;;;;;5.33;4.83;;;14.60;99.90;;;;;;6188643;28;20198;-72
2021/09/13 06:10:36;;;;;;;8.27;5.67;;;14.60;99.90;;;;;;6192040;28;20185;-71
2021/09/13 06:13:40;;;;;;;6.00;5.50;;;14.70;99.90;;;;;;6201934;28;20681;-71
2021/09/13 06:16:43;;;;;;;6.27;5.77;;;14.70;99.90;;;;;;6205815;28;20252;-71
2021/09/13 06:19:46;;;;;;;5.80;5.30;;;14.70;99.90;;;;;;6212379;28;20204;-71
2021/09/13 06:22:52;;;;;;;6.40;5.80;;;14.80;99.90;;;;;;6196184;28;20205;-71
2021/09/13 06:25:58;;;;;;;7.03;6.43;;;14.90;99.90;;;;;;6212164;28;20203;-72
2021/09/13 06:29:00;;;;;;;6.30;5.80;;;15.00;99.90;;;;;;6196128;28;20193;-72
2021/09/13 06:32:03;;;;;;;6.63;6.03;;;15.00;99.90;;;;;;6195953;28;20285;-71
2021/09/13 06:35:05;;;;;;;7.63;6.10;;;15.10;99.90;;;;;;6204278;28;20201;-72
2021/09/13 06:38:26;;;;;;;6.63;6.03;;;15.20;99.90;;;;;;6194344;28;20197;-71
2021/09/13 06:41:28;;;;;;;6.93;6.33;;;15.40;99.90;;;;;;6211744;28;20221;-72
2021/09/13 06:44:30;;;;;;;7.73;6.87;;;15.40;99.90;;;;;;6195483;28;20197;-72
2021/09/13 06:50:37;;;;;;;7.70;7.00;;;15.80;99.90;;;;;;6212094;28;20204;-72
2021/09/13 06:53:39;;;;;;;9.77;8.83;;;15.90;99.90;;;;;;6195829;28;20208;-72
2021/09/13 06:56:41;;;;;;;7.73;7.03;;;16.10;99.90;;;;;;6196946;28;20643;-71
2021/09/13 06:59:43;;;;;;;8.20;7.40;;;16.30;99.90;;;;;;6197279;28;20240;-72
2021/09/13 07:02:46;;;;;;;7.70;7.00;;;16.40;99.90;;;;;;6195132;28;20720;-72
2021/09/13 07:05:50;;;;;;;8.30;7.60;;;16.60;99.90;;;;;;6187745;28;20194;-72
2021/09/13 07:08:52;;;;;;;6.73;6.13;;;16.70;99.90;;;;;;6190060;28;20207;-72
2021/09/13 07:11:55;;;;;;;8.03;6.80;;;16.90;99.90;;;;;;6195938;28;20197;-71
2021/09/13 07:14:58;;;;;;;6.70;6.10;;;17.00;99.90;;;;;;6204348;28;20197;-71
2021/09/13 07:18:00;;;;;;;6.50;5.83;;;17.00;99.90;;;;;;6195831;28;20575;-71
2021/09/13 07:21:04;;;;;;;6.53;5.93;;;17.10;99.90;;;;;;6211247;28;20705;-71
2021/09/13 07:24:06;;;;;;;6.70;5.97;;;17.20;99.90;;;;;;6196159;28;20194;-71
2021/09/13 07:27:09;;;;;;;6.20;5.70;;;17.30;99.90;;;;;;6196095;28;20216;-72
2021/09/13 07:30:12;;;;;;;6.87;5.30;;;17.50;99.90;;;;;;6194756;28;20193;-72
2021/09/13 07:33:15;;;;;;;6.53;5.63;;;17.70;99.90;;;;;;6195706;28;20624;-71
2021/09/13 07:36:17;;;;;;;5.40;4.97;;;17.90;99.90;;;;;;6186972;28;20194;-72
2021/09/13 07:39:19;;;;;;;5.20;4.77;;;18.10;99.90;;;;;;6183758;28;20189;-71
2021/09/13 07:42:23;;;;;;;4.80;4.40;;;18.50;99.90;;;;;;6195446;28;20205;-71
2021/09/13 07:45:25;;;;;;;4.60;4.20;;;18.80;99.90;;;;;;6210678;28;20190;-72
2021/09/13 07:48:28;;;;;;;5.27;3.70;;;19.10;99.90;;;;;;6195445;28;20197;-72
2021/09/13 07:51:30;;;;;;;4.80;4.40;;;19.40;99.90;;;;;;6195711;28;20185;-71
2021/09/13 07:54:32;;;;;;;4.77;4.37;;;19.70;99.90;;;;;;6195352;28;20212;-71
2021/09/13 07:57:34;;;;;;;4.87;4.43;;;20.00;99.90;;;;;;6193929;28;20561;-71
2021/09/13 08:00:37;;;;;;;3.90;3.60;;;20.30;99.90;;;;;;6210085;28;20220;-71
2021/09/13 08:03:39;;;;;;;3.90;3.60;;;20.60;99.90;;;;;;6194819;28;20233;-72
2021/09/13 08:06:42;;;;;;;4.10;3.70;;;20.90;99.90;;;;;;6186304;28;20676;-72
2021/09/13 08:09:44;;;;;;;4.07;3.67;;;21.20;99.90;;;;;;6178020;28;20193;-71
2021/09/13 08:12:47;;;;;;;3.87;3.57;;;21.50;99.90;;;;;;6195034;28;20291;-72
2021/09/13 08:15:51;;;;;;;4.10;3.70;;;21.90;99.90;;;;;;6211523;28;20195;-71
2021/09/13 08:18:57;;;;;;;3.63;3.33;;;22.30;99.90;;;;;;6200493;28;20212;-72
2021/09/13 08:22:01;;;;;;;4.10;3.70;;;22.60;99.90;;;;;;6199919;28;20587;-72
2021/09/13 08:25:04;;;;;;;4.23;3.60;;;23.00;99.90;;;;;;6198631;28;20232;-72
2021/09/13 08:28:28;;;;;;;3.93;3.57;;;23.20;99.90;;;;;;6199899;28;20186;-71
2021/09/13 08:31:30;;;;;;;3.53;3.23;;;23.50;99.90;;;;;;6198640;28;20198;-72
2021/09/13 08:34:32;;;;;;;3.20;2.90;;;23.90;99.90;;;;;;6199696;28;20634;-71
2021/09/13 08:37:34;;;;;;;3.17;2.90;;;24.20;99.90;;;;;;6199504;28;20254;-71
2021/09/13 08:40:37;;;;;;;3.00;2.80;;;24.00;99.90;;;;;;6198399;28;20189;-71
2021/09/13 08:43:43;;;;;;;3.00;2.70;;;23.70;99.90;;;;;;6199651;28;20244;-71
2021/09/13 08:46:58;;;;;;;2.90;2.53;;;23.30;99.90;;;;;;6199510;28;20182;-71
2021/09/13 08:50:08;;;;;;;2.43;2.23;;;23.20;99.90;;;;;;6214577;28;20194;-70
2021/09/13 08:53:13;;;;;;;2.70;2.50;;;23.50;99.90;;;;;;6182188;28;20205;-71
2021/09/13 08:56:17;;;;;;;5.33;3.00;;;24.00;99.90;;;;;;6199340;28;20580;-71
2021/09/13 08:59:26;;;;;;;3.20;2.90;;;24.50;99.90;;;;;;6199349;28;20213;-71
2021/09/13 09:02:30;;;;;;;4.23;2.80;;;24.90;99.90;;;;;;6199045;28;20319;-72
2021/09/13 09:05:43;;;;;;;3.00;2.80;;;25.20;98.70;;;;;;6199398;28;20657;-71
2021/09/13 09:09:02;;;;;;;3.30;2.93;;;25.20;97.80;;;;;;6198970;28;20193;-71
2021/09/13 09:12:09;;;;;;;2.90;2.60;;;24.90;98.10;;;;;;6199309;28;20246;-70
2021/09/13 09:15:11;;;;;;;2.87;2.67;;;24.50;98.50;;;;;;6201877;28;20201;-71
2021/09/13 09:18:14;;;;;;;3.10;2.90;;;24.20;99.30;;;;;;6198887;28;20198;-71
2021/09/13 09:21:29;;;;;;;3.70;2.73;;;24.20;99.40;;;;;;6213825;28;20244;-71
2021/09/13 09:24:37;;;;;;;2.93;2.73;;;24.50;98.40;;;;;;6213892;28;20193;-70
2021/09/13 09:28:01;;;;;;;3.35;3.05;;;25.00;98.40;;;;;;6188932;28;20197;-70
2021/09/13 09:31:03;;;;;;;3.10;2.80;;;25.40;95.40;;;;;;6198754;28;20193;-71
2021/09/13 09:34:20;;;;;;;2.72;2.53;;;25.70;95.30;;;;;;6198540;28;20197;-70
2021/09/13 09:37:25;;;;;;;3.00;2.70;;;26.10;95.60;;;;;;6198366;28;20619;-70
2021/09/13 09:40:29;;;;;;;3.53;2.80;;;26.30;95.10;;;;;;6198376;28;20316;-70
2021/09/13 09:43:52;;;;;;;3.17;2.88;;;26.30;95.10;;;;;;6198205;28;20367;-70
2021/09/13 09:47:10;;;;;;;3.47;3.17;;;26.30;92.40;;;;;;6198009;28;20201;-70
2021/09/13 09:50:29;;;;;;;3.22;2.92;;;26.60;92.10;;;;;;6189454;28;20253;-71
2021/09/13 09:53:40;;;;;;;3.08;2.67;;;27.10;91.90;;;;;;6184170;28;20275;-71
2021/09/13 09:56:47;;;;;;;5.38;2.83;;;27.60;90.40;;;;;;6197018;28;20204;-70
2021/09/13 09:59:51;;;;;;;3.13;2.92;;;27.90;89.60;;;;;;6197900;28;20209;-70
2021/09/13 10:02:54;;;;;;;4.97;3.10;;;28.30;85.70;;;;;;6212698;28;20243;-70
2021/09/13 10:05:56;;;;;;;3.53;2.70;;;28.40;83.20;;;;;;6198189;28;20194;-70
2021/09/13 10:09:01;;;;;;;2.65;2.45;;;28.20;81.50;;;;;;6198181;28;20186;-70
2021/09/13 10:12:06;;;;;;;3.30;3.08;;;28.10;83.10;;;;;;6212601;28;20307;-70
2021/09/13 10:15:09;;;;;;;2.97;2.78;;;28.20;82.50;;;;;;6207118;28;20205;-71
2021/09/13 10:18:12;;;;;;;3.35;2.70;;;28.30;83.50;;;;;;6207227;28;20676;-70
2021/09/13 10:21:15;;;;;;;2.70;2.50;;;28.20;82.50;;;;;;6196153;28;20303;-71
2021/09/13 10:24:22;;;;;;;4.35;2.80;;;28.20;84.10;;;;;;6197200;28;20649;-71
2021/09/13 10:27:25;;;;;;;3.70;3.10;;;28.30;83.90;;;;;;6197319;28;20202;-70
2021/09/13 10:30:27;;;;;;;3.08;2.88;;;28.10;83.00;;;;;;6197134;28;20669;-69
2021/09/13 10:33:29;;;;;;;3.42;2.90;;;27.80;83.80;;;;;;6197204;28;20190;-70
2021/09/13 10:37:10;;;;;;;2.88;2.65;;;27.60;84.60;;;;;;6196911;28;20190;-70
2021/09/13 10:40:15;;;;;;;3.05;2.85;;;27.50;86.40;;;;;;6196678;28;20197;-70
2021/09/13 10:43:19;;;;;;;3.42;3.13;;;27.60;84.70;;;;;;6196885;28;20214;-70
2021/09/13 10:47:06;;;;;;;4.13;3.70;;;27.90;84.80;;;;;;6196829;28;20343;-70
2021/09/13 10:50:33;;;;;;;4.68;3.97;;;28.30;82.20;;;;;;6194306;28;20237;-70
2021/09/13 10:53:37;;;;;;;5.10;3.30;;;28.60;77.70;;;;;;6196703;28;20272;-70
2021/09/13 10:56:40;;;;;;;4.13;3.72;;;28.30;78.60;;;;;;6195661;28;20193;-71
2021/09/13 10:59:45;;;;;;;3.45;3.20;;;28.00;77.80;;;;;;6196228;28;20569;-70
2021/09/13 11:03:22;;;;;;;4.07;3.38;;;27.40;79.90;;;;;;6178744;28;20240;-70
2021/09/13 11:06:28;;;;;;;3.75;3.45;;;27.10;82.00;;;;;;6196159;28;20240;-69
2021/09/13 11:09:30;;;;;;;3.50;3.20;;;27.00;82.30;;;;;;6211269;28;20198;-70
2021/09/13 11:12:32;;;;;;;3.58;3.28;;;27.30;81.60;;;;;;6198869;28;20197;-70
2021/09/13 11:15:35;;;;;;;3.45;2.78;;;27.50;80.40;;;;;;6204166;28;20225;-70
2021/09/13 11:18:43;;;;;;;4.30;3.08;;;27.40;79.90;;;;;;6196255;28;20193;-70
2021/09/13 11:21:52;;;;;;;3.67;3.38;;;27.50;80.90;;;;;;6196061;28;20345;-70
2021/09/13 11:24:56;;;;;;;3.60;3.30;;;27.90;79.80;;;;;;6196078;28;20169;-70
2021/09/13 11:28:00;;;;;;;3.53;3.25;;;27.90;76.80;;;;;;6195713;28;20193;-69
2021/09/13 11:31:04;;;;;;;3.38;3.10;;;27.70;78.70;;;;;;6195734;28;20190;-69
2021/09/13 11:34:19;;;;;;;3.63;3.33;;;27.60;80.90;;;;;;6195771;28;20252;-70
2021/09/13 11:37:26;;;;;;;3.33;3.03;;;27.80;81.10;;;;;;6196383;28;20208;-70
2021/09/13 11:40:48;;;;;;;3.38;3.08;;;28.10;79.10;;;;;;6210613;28;20225;-70
2021/09/13 11:43:58;;;;;;;3.30;3.10;;;28.00;76.80;;;;;;6195531;28;20218;-70
2021/09/13 11:47:06;;;;;;;3.30;3.08;;;27.70;76.80;;;;;;6210768;28;20202;-70
2021/09/13 11:50:10;;;;;;;2.92;2.70;;;27.50;79.40;;;;;;6195412;28;20320;-70
2021/09/13 11:53:14;;;;;;;3.13;2.92;;;27.60;80.50;;;;;;6194269;28;20193;-70
2021/09/13 11:56:17;;;;;;;3.90;3.28;;;28.00;79.20;;;;;;6195534;28;20272;-70
2021/09/13 11:59:24;;;;;;;3.15;2.95;;;28.50;77.60;;;;;;6195263;28;20638;-70
2021/09/13 12:02:28;;;;;;;3.35;3.05;;;28.50;76.60;;;;;;6210265;28;20236;-69
2021/09/13 12:05:36;;;;;;;3.72;3.05;;;28.60;75.00;;;;;;6195055;28;20256;-71
2021/09/13 12:08:39;;;;;;;2.95;2.72;;;28.50;74.40;;;;;;6195236;28;20243;-70
2021/09/13 12:11:41;;;;;;;3.05;2.85;;;28.30;75.20;;;;;;6194273;28;20675;-70
2021/09/13 12:14:43;;;;;;;2.97;2.78;;;28.40;73.20;;;;;;6201042;28;20189;-69
2021/09/13 12:17:51;;;;;;;2.80;2.60;;;28.40;72.90;;;;;;6213248;28;20542;-70
2021/09/13 12:20:53;;;;;;;2.90;2.70;;;28.60;74.00;;;;;;6210156;28;20177;-70
2021/09/13 12:23:56;;;;;;;3.22;2.80;;;28.90;72.00;;;;;;6194012;28;20429;-70
2021/09/13 12:27:22;;;;;;;2.70;2.50;;;29.20;68.50;;;;;;6194988;28;20657;-70
2021/09/13 12:30:27;;;;;;;2.75;2.55;;;29.40;66.30;;;;;;6193806;28;20201;-70
2021/09/13 12:33:46;;;;;;;2.63;2.42;;;29.30;66.50;;;;;;6193892;28;20684;-70
2021/09/13 12:37:04;;;;;;;2.50;2.30;;;28.90;66.70;;;;;;6185869;28;20198;-70
2021/09/13 12:40:18;;;;;;;2.72;2.47;;;28.60;69.80;;;;;;6188443;28;20331;-70
2021/09/13 12:43:28;;;;;;;4.93;2.38;;;28.80;69.40;;;;;;6194920;28;20205;-69
2021/09/13 12:46:47;;;;;;;2.75;2.55;;;29.10;67.20;;;;;;6195083;28;20661;-69
2021/09/13 12:49:51;;;;;;;3.13;2.63;;;29.40;64.80;;;;;;6193881;28;20210;-71
2021/09/13 12:52:53;;;;;;;2.50;2.30;;;29.60;62.80;;;;;;6193686;28;20228;-71
2021/09/13 12:55:58;;;;;;;2.45;2.25;;;29.50;60.20;;;;;;6194802;28;20205;-69
2021/09/13 12:59:16;;;;;;;2.58;2.38;;;29.00;59.60;;;;;;6194502;28;20575;-70
2021/09/13 13:02:19;;;;;;;2.63;2.13;;;29.30;61.90;;;;;;6195922;28;20229;-70
2021/09/13 13:05:34;;;;;;;2.28;2.10;;;30.00;59.70;;;;;;6199014;28;20323;-71
2021/09/13 13:08:37;;;;;;;2.45;2.25;;;30.70;58.80;;;;;;6190039;28;20273;-70
2021/09/13 13:11:42;;;;;;;2.35;2.03;;;31.00;57.10;;;;;;6197028;28;20189;-70
2021/09/13 13:14:44;;;;;;;2.60;2.40;;;31.40;56.80;;;;;;6205100;28;20216;-70
2021/09/13 13:17:47;;;;;;;2.28;2.08;;;31.70;56.10;;;;;;6206005;28;20185;-70
2021/09/13 13:20:52;;;;;;;2.47;2.28;;;31.90;55.60;;;;;;6213732;28;20209;-70
2021/09/13 13:23:55;;;;;;;2.65;1.90;;;32.20;54.40;;;;;;6198826;28;20214;-71
2021/09/13 13:26:58;;;;;;;2.35;2.15;;;32.80;53.90;;;;;;6198498;28;20220;-70
2021/09/13 13:30:03;;;;;;;2.10;2.00;;;33.30;53.80;;;;;;6198547;28;20189;-70
2021/09/13 13:33:07;;;;;;;2.17;2.08;;;33.70;51.50;;;;;;6198709;28;20584;-70
2021/09/13 13:36:12;;;;;;;2.40;2.20;;;34.00;50.40;;;;;;6174306;28;20194;-70
2021/09/13 13:39:14;;;;;;;1.95;1.85;;;34.00;50.50;;;;;;6189182;28;20670;-70
2021/09/13 13:42:18;;;;;;;3.70;2.17;;;34.10;48.90;;;;;;6192709;28;20216;-70
2021/09/13 13:45:20;;;;;;;1.90;1.80;;;34.50;48.60;;;;;;6213591;28;20208;-70
2021/09/13 13:48:23;;;;;;;2.45;2.25;;;34.70;48.00;;;;;;6213298;28;20227;-71
2021/09/13 13:51:25;;;;;;;2.33;2.10;;;35.00;48.00;;;;;;6196872;28;20302;-71
2021/09/13 13:54:27;;;;;;;2.17;2.03;;;34.80;45.40;;;;;;6198510;28;20197;-70
2021/09/13 13:57:29;;;;;;;2.33;2.00;;;34.40;46.70;;;;;;6197918;28;20189;-71
2021/09/13 14:00:32;;;;;;;2.00;1.90;;;34.60;46.90;;;;;;6198007;28;20292;-70
2021/09/13 14:03:34;;;;;;;2.75;1.88;;;34.70;46.30;;;;;;6196539;28;20236;-70
2021/09/13 14:06:38;;;;;;;1.83;1.73;;;35.00;46.30;;;;;;6197737;28;20189;-70
2021/09/13 14:09:41;;;;;;;2.13;2.00;;;35.00;46.10;;;;;;6197733;28;20201;-70
2021/09/13 14:12:43;;;;;;;2.05;1.95;;;34.60;45.60;;;;;;6196426;28;20618;-70
2021/09/13 14:15:45;;;;;;;2.10;2.00;;;33.60;46.80;;;;;;6201058;28;20645;-70
2021/09/13 14:18:48;;;;;;;2.15;1.98;;;32.10;48.10;;;;;;6196238;28;20200;-70
2021/09/13 14:21:50;;;;;;;2.22;2.03;;;30.90;50.40;;;;;;6212425;28;20609;-70
2021/09/13 14:24:53;;;;;;;2.00;1.90;;;29.90;53.80;;;;;;6196075;28;20351;-70
2021/09/13 14:27:55;;;;;;;2.17;2.03;;;29.10;55.10;;;;;;6197215;28;20193;-69
2021/09/13 14:30:57;;;;;;;2.38;2.17;;;28.50;54.40;;;;;;6209032;28;20209;-71
2021/09/13 14:34:00;;;;;;;1.98;1.88;;;28.10;55.00;;;;;;6191343;28;20198;-70
2021/09/13 14:37:02;;;;;;;2.03;1.92;;;27.90;54.80;;;;;;6192990;28;20660;-70
2021/09/13 14:40:05;;;;;;;2.92;2.00;;;27.70;54.60;;;;;;6194756;28;20280;-70
2021/09/13 14:43:07;;;;;;;4.60;1.85;;;27.50;55.20;;;;;;6187583;28;20210;-69
2021/09/13 14:46:09;;;;;;;2.38;2.17;;;27.30;55.60;;;;;;6182967;28;20194;-69
2021/09/13 14:49:12;;;;;;;1.92;1.75;;;27.10;55.30;;;;;;6192685;28;20181;-70
2021/09/13 14:52:14;;;;;;;1.88;1.77;;;26.90;55.60;;;;;;6192574;28;20227;-70
2021/09/13 14:55:17;;;;;;;1.95;1.85;;;26.80;56.70;;;;;;6193376;28;20204;-69
2021/09/13 14:58:19;;;;;;;2.38;2.00;;;26.80;56.90;;;;;;6193312;28;20327;-69
2021/09/13 15:01:25;;;;;;;3.42;2.20;;;26.90;57.10;;;;;;6178869;28;20613;-70
2021/09/13 15:04:31;;;;;;;2.33;2.13;;;26.90;56.90;;;;;;6193034;28;20233;-69
2021/09/13 15:07:33;;;;;;;2.28;2.13;;;26.80;57.20;;;;;;6195364;28;20221;-70
2021/09/13 15:10:35;;;;;;;2.45;2.25;;;26.60;58.40;;;;;;6193457;28;20731;-70
2021/09/13 15:13:40;;;;;;;2.30;2.10;;;26.40;59.30;;;;;;6195685;28;20732;-69
2021/09/13 15:16:42;;;;;;;2.10;2.00;;;26.20;61.40;;;;;;6190950;28;20220;-69
2021/09/13 15:19:44;;;;;;;2.40;2.20;;;26.00;62.50;;;;;;6191441;28;20208;-69
2021/09/13 15:22:47;;;;;;;2.13;2.00;;;25.90;64.20;;;;;;6192428;28;20681;-70
2021/09/13 15:25:49;;;;;;;2.58;2.38;;;25.80;64.30;;;;;;6191422;28;20189;-70
2021/09/13 15:28:51;;;;;;;2.55;2.35;;;25.70;64.50;;;;;;6195465;28;20207;-69
2021/09/13 15:31:54;;;;;;;2.13;2.03;;;25.60;63.80;;;;;;6195957;28;20204;-69
2021/09/13 15:34:56;;;;;;;3.35;2.30;;;25.60;65.60;;;;;;6192714;28;20343;-70
2021/09/13 15:37:59;;;;;;;2.50;2.30;;;25.40;67.00;;;;;;6193016;28;20201;-69
2021/09/13 15:41:01;;;;;;;4.43;2.42;;;25.30;68.00;;;;;;6191087;28;20316;-69
2021/09/13 15:44:04;;;;;;;2.40;2.20;;;25.20;69.00;;;;;;6194130;28;20205;-69
2021/09/13 15:47:06;;;;;;;2.47;2.22;;;25.00;70.70;;;;;;6185795;28;20641;-69
2021/09/13 15:50:09;;;;;;;2.45;2.25;;;24.80;72.70;;;;;;6193249;28;20493;-70
2021/09/13 15:53:11;;;;;;;3.00;2.28;;;24.60;73.90;;;;;;6195420;28;20573;-69
2021/09/13 15:56:16;;;;;;;7.35;2.85;;;24.40;75.60;;;;;;6196016;28;20193;-71
2021/09/13 15:59:18;;;;;;;3.53;2.15;;;24.10;77.40;;;;;;6194982;28;20217;-69
2021/09/13 16:02:23;;;;;;;2.80;2.15;;;24.00;78.90;;;;;;6193567;28;20229;-70
2021/09/13 16:05:27;;;;;;;3.80;2.45;;;23.80;80.30;;;;;;6187670;28;20280;-70
2021/09/13 16:08:30;;;;;;;2.95;2.30;;;23.60;81.80;;;;;;6192423;28;20193;-69
2021/09/13 16:11:32;;;;;;;2.30;2.10;;;23.40;83.60;;;;;;6193989;28;20205;-70
2021/09/13 16:14:35;;;;;;;3.23;2.60;;;23.20;85.00;;;;;;6198476;28;20685;-69